sensor_id;sensor_type;location;lat;lon;timestamp;temperature;humidity
3186;DHT22;1604;53.700;10.252;2023-07-02T00:01:47;14.80;99.90
3186;DHT22;1604;53.700;10.252;2023-07-02T00:04:49;14.70;99.90
3186;DHT22;1604;53.700;10.252;2023-07-02T00:07:51;14.70;99.90
3186;DHT22;1604;53.700;10.252;2023-07-02T00:10:54;14.60;99.90
3186;DHT22;1604;53.700;10.252;2023-07-02T00:13:56;14.60;99.90
3186;DHT22;1604;53.700;10.252;2023-07-02T00:16:59;14.60;99.90
3186;DHT22;1604;53.700;10.252;2023-07-02T00:20:01;14.50;99.90
3186;DHT22;1604;53.700;10.252;2023-07-02T00:23:09;14.40;99.90
3186;DHT22;1604;53.700;10.252;2023-07-02T00:26:12;14.40;99.90
3186;DHT22;1604;53.700;10.252;2023-07-02T00:29:14;14.30;99.90
3186;DHT22;1604;53.700;10.252;2023-07-02T00:32:19;14.30;99.90
3186;DHT22;1604;53.700;10.252;2023-07-02T00:35:21;14.30;99.90
3186;DHT22;1604;53.700;10.252;2023-07-02T00:38:23;14.20;99.90
3186;DHT22;1604;53.700;10.252;2023-07-02T00:41:26;14.20;99.90
3186;DHT22;1604;53.700;10.252;2023-07-02T00:44:28;14.20;99.90
3186;DHT22;1604;53.700;10.252;2023-07-02T00:47:31;14.30;99.90
3186;DHT22;1604;53.700;10.252;2023-07-02T00:50:37;14.30;99.90
3186;DHT22;1604;53.700;10.252;2023-07-02T00:53:41;14.30;99.90
3186;DHT22;1604;53.700;10.252;2023-07-02T00:56:44;14.30;99.90
3186;DHT22;1604;53.700;10.252;2023-07-02T00:59:46;14.30;99.90
3186;DHT22;1604;53.700;10.252;2023-07-02T01:02:53;14.40;99.90
3186;DHT22;1604;53.700;10.252;2023-07-02T01:05:57;14.40;99.90
3186;DHT22;1604;53.700;10.252;2023-07-02T01:09:01;14.40;99.90
3186;DHT22;1604;53.700;10.252;2023-07-02T01:12:07;14.50;99.90
3186;DHT22;1604;53.700;10.252;2023-07-02T01:15:14;14.50;99.90
3186;DHT22;1604;53.700;10.252;2023-07-02T01:18:16;14.50;99.90
3186;DHT22;1604;53.700;10.252;2023-07-02T01:21:23;14.60;99.90
3186;DHT22;1604;53.700;10.252;2023-07-02T01:24:26;14.50;99.90
3186;DHT22;1604;53.700;10.252;2023-07-02T01:27:28;14.50;99.90
3186;DHT22;1604;53.700;10.252;2023-07-02T01:30:31;14.60;99.90
3186;DHT22;1604;53.700;10.252;2023-07-02T01:33:33;14.60;99.90
3186;DHT22;1604;53.700;10.252;2023-07-02T01:36:39;14.50;99.90
3186;DHT22;1604;53.700;10.252;2023-07-02T01:39:42;14.60;99.90
3186;DHT22;1604;53.700;10.252;2023-07-02T01:42:47;14.50;99.90
3186;DHT22;1604;53.700;10.252;2023-07-02T01:45:49;14.50;99.90
3186;DHT22;1604;53.700;10.252;2023-07-02T01:48:51;14.50;99.90
3186;DHT22;1604;53.700;10.252;2023-07-02T01:51:55;14.50;99.90
3186;DHT22;1604;53.700;10.252;2023-07-02T01:55:01;14.50;99.90
3186;DHT22;1604;53.700;10.252;2023-07-02T01:58:03;14.50;99.90
3186;DHT22;1604;53.700;10.252;2023-07-02T02:01:05;14.50;99.90
3186;DHT22;1604;53.700;10.252;2023-07-02T02:04:07;14.50;99.90
3186;DHT22;1604;53.700;10.252;2023-07-02T02:07:10;14.60;99.90
3186;DHT22;1604;53.700;10.252;2023-07-02T02:10:12;14.60;99.90
3186;DHT22;1604;53.700;10.252;2023-07-02T02:13:15;14.60;99.90
3186;DHT22;1604;53.700;10.252;2023-07-02T02:16:17;14.60;99.90
3186;DHT22;1604;53.700;10.252;2023-07-02T02:19:19;14.60;99.90
3186;DHT22;1604;53.700;10.252;2023-07-02T02:22:22;14.60;99.90
3186;DHT22;1604;53.700;10.252;2023-07-02T02:25:24;14.60;99.90
3186;DHT22;1604;53.700;10.252;2023-07-02T02:28:26;14.60;99.90
3186;DHT22;1604;53.700;10.252;2023-07-02T02:31:31;14.60;99.90
3186;DHT22;1604;53.700;10.252;2023-07-02T02:34:33;14.60;99.90
3186;DHT22;1604;53.700;10.252;2023-07-02T02:37:38;14.50;99.90
3186;DHT22;1604;53.700;10.252;2023-07-02T02:40:40;14.50;99.90
3186;DHT22;1604;53.700;10.252;2023-07-02T02:43:42;14.60;99.90
3186;DHT22;1604;53.700;10.252;2023-07-02T02:46:44;14.50;99.90
3186;DHT22;1604;53.700;10.252;2023-07-02T02:49:46;14.50;99.90
3186;DHT22;1604;53.700;10.252;2023-07-02T02:52:49;14.50;99.90
3186;DHT22;1604;53.700;10.252;2023-07-02T02:55:51;14.40;99.90
3186;DHT22;1604;53.700;10.252;2023-07-02T02:58:54;14.50;99.90
3186;DHT22;1604;53.700;10.252;2023-07-02T03:01:56;14.50;99.90
3186;DHT22;1604;53.700;10.252;2023-07-02T03:04:58;14.40;99.90
3186;DHT22;1604;53.700;10.252;2023-07-02T03:08:04;14.40;99.90
3186;DHT22;1604;53.700;10.252;2023-07-02T03:11:06;14.40;99.90
3186;DHT22;1604;53.700;10.252;2023-07-02T03:14:08;14.30;99.90
3186;DHT22;1604;53.700;10.252;2023-07-02T03:17:10;14.30;99.90
3186;DHT22;1604;53.700;10.252;2023-07-02T03:20:12;14.30;99.90
3186;DHT22;1604;53.700;10.252;2023-07-02T03:23:16;14.30;99.90
3186;DHT22;1604;53.700;10.252;2023-07-02T03:26:18;14.30;99.90
3186;DHT22;1604;53.700;10.252;2023-07-02T03:29:21;14.30;99.90
3186;DHT22;1604;53.700;10.252;2023-07-02T03:32:23;14.30;99.90
3186;DHT22;1604;53.700;10.252;2023-07-02T03:35:25;14.30;99.90
3186;DHT22;1604;53.700;10.252;2023-07-02T03:38:28;14.30;99.90
3186;DHT22;1604;53.700;10.252;2023-07-02T03:41:30;14.30;99.90
3186;DHT22;1604;53.700;10.252;2023-07-02T03:44:32;14.30;99.90
3186;DHT22;1604;53.700;10.252;2023-07-02T03:47:34;14.30;99.90
3186;DHT22;1604;53.700;10.252;2023-07-02T03:50:36;14.20;99.90
3186;DHT22;1604;53.700;10.252;2023-07-02T03:53:39;14.20;99.90
3186;DHT22;1604;53.700;10.252;2023-07-02T03:56:41;14.30;99.90
3186;DHT22;1604;53.700;10.252;2023-07-02T03:59:43;14.20;99.90
3186;DHT22;1604;53.700;10.252;2023-07-02T04:02:45;14.20;99.90
3186;DHT22;1604;53.700;10.252;2023-07-02T04:05:47;14.40;99.90
3186;DHT22;1604;53.700;10.252;2023-07-02T04:08:50;14.40;99.90
3186;DHT22;1604;53.700;10.252;2023-07-02T04:11:53;14.40;99.90
3186;DHT22;1604;53.700;10.252;2023-07-02T04:14:54;14.40;99.90
3186;DHT22;1604;53.700;10.252;2023-07-02T04:17:56;14.50;99.90
3186;DHT22;1604;53.700;10.252;2023-07-02T04:20:59;14.50;99.90
3186;DHT22;1604;53.700;10.252;2023-07-02T04:24:02;14.50;99.90
3186;DHT22;1604;53.700;10.252;2023-07-02T04:27:05;14.50;99.90
3186;DHT22;1604;53.700;10.252;2023-07-02T04:30:07;14.60;99.90
3186;DHT22;1604;53.700;10.252;2023-07-02T04:33:10;14.70;99.90
3186;DHT22;1604;53.700;10.252;2023-07-02T04:36:14;14.80;99.90
3186;DHT22;1604;53.700;10.252;2023-07-02T04:39:17;14.80;99.90
3186;DHT22;1604;53.700;10.252;2023-07-02T04:42:19;14.90;99.90
3186;DHT22;1604;53.700;10.252;2023-07-02T04:45:23;15.00;99.90
3186;DHT22;1604;53.700;10.252;2023-07-02T04:48:29;15.10;99.90
3186;DHT22;1604;53.700;10.252;2023-07-02T04:51:31;15.10;99.90
3186;DHT22;1604;53.700;10.252;2023-07-02T04:54:37;15.20;99.90
3186;DHT22;1604;53.700;10.252;2023-07-02T04:57:39;15.20;99.90
3186;DHT22;1604;53.700;10.252;2023-07-02T05:00:41;15.30;99.90
3186;DHT22;1604;53.700;10.252;2023-07-02T05:03:43;15.40;99.90
3186;DHT22;1604;53.700;10.252;2023-07-02T05:06:45;15.50;99.90
3186;DHT22;1604;53.700;10.252;2023-07-02T05:09:48;15.50;99.90
3186;DHT22;1604;53.700;10.252;2023-07-02T05:12:52;15.60;99.90
3186;DHT22;1604;53.700;10.252;2023-07-02T05:15:54;15.70;99.90
3186;DHT22;1604;53.700;10.252;2023-07-02T05:18:58;15.90;99.90
3186;DHT22;1604;53.700;10.252;2023-07-02T05:21:59;16.00;99.90
3186;DHT22;1604;53.700;10.252;2023-07-02T05:25:03;16.20;99.90
3186;DHT22;1604;53.700;10.252;2023-07-02T05:28:05;16.30;99.90
3186;DHT22;1604;53.700;10.252;2023-07-02T05:31:07;16.30;99.90
3186;DHT22;1604;53.700;10.252;2023-07-02T05:34:09;16.30;99.90
3186;DHT22;1604;53.700;10.252;2023-07-02T05:37:11;16.40;99.90
3186;DHT22;1604;53.700;10.252;2023-07-02T05:40:15;16.40;99.90
3186;DHT22;1604;53.700;10.252;2023-07-02T05:43:17;16.50;99.90
3186;DHT22;1604;53.700;10.252;2023-07-02T05:46:19;16.70;99.90
3186;DHT22;1604;53.700;10.252;2023-07-02T05:49:21;16.80;99.90
3186;DHT22;1604;53.700;10.252;2023-07-02T05:52:22;16.90;99.90
3186;DHT22;1604;53.700;10.252;2023-07-02T05:55:26;17.00;99.90
3186;DHT22;1604;53.700;10.252;2023-07-02T05:58:28;17.00;99.90
3186;DHT22;1604;53.700;10.252;2023-07-02T06:01:30;16.90;99.90
3186;DHT22;1604;53.700;10.252;2023-07-02T06:04:32;17.00;99.90
3186;DHT22;1604;53.700;10.252;2023-07-02T06:07:34;17.20;99.90
3186;DHT22;1604;53.700;10.252;2023-07-02T06:10:37;17.30;99.30
3186;DHT22;1604;53.700;10.252;2023-07-02T06:13:39;17.40;99.10
3186;DHT22;1604;53.700;10.252;2023-07-02T06:16:41;17.50;99.20
3186;DHT22;1604;53.700;10.252;2023-07-02T06:19:44;17.70;99.00
3186;DHT22;1604;53.700;10.252;2023-07-02T06:22:47;17.80;99.00
3186;DHT22;1604;53.700;10.252;2023-07-02T06:25:50;17.90;99.10
3186;DHT22;1604;53.700;10.252;2023-07-02T06:28:59;18.10;97.90
3186;DHT22;1604;53.700;10.252;2023-07-02T06:32:01;18.30;97.10
3186;DHT22;1604;53.700;10.252;2023-07-02T06:35:04;18.40;97.70
3186;DHT22;1604;53.700;10.252;2023-07-02T06:38:06;18.50;96.80
3186;DHT22;1604;53.700;10.252;2023-07-02T06:41:09;18.60;95.70
3186;DHT22;1604;53.700;10.252;2023-07-02T06:44:11;18.70;95.50
3186;DHT22;1604;53.700;10.252;2023-07-02T06:47:13;18.80;95.10
3186;DHT22;1604;53.700;10.252;2023-07-02T06:50:15;19.00;94.10
3186;DHT22;1604;53.700;10.252;2023-07-02T06:53:17;19.10;93.00
3186;DHT22;1604;53.700;10.252;2023-07-02T06:56:21;19.30;92.40
3186;DHT22;1604;53.700;10.252;2023-07-02T06:59:22;19.40;93.30
3186;DHT22;1604;53.700;10.252;2023-07-02T07:02:24;19.60;90.60
3186;DHT22;1604;53.700;10.252;2023-07-02T07:05:26;19.70;91.90
3186;DHT22;1604;53.700;10.252;2023-07-02T07:08:29;19.70;89.60
3186;DHT22;1604;53.700;10.252;2023-07-02T07:11:32;19.70;88.80
3186;DHT22;1604;53.700;10.252;2023-07-02T07:14:34;19.70;88.40
3186;DHT22;1604;53.700;10.252;2023-07-02T07:17:36;19.70;89.70
3186;DHT22;1604;53.700;10.252;2023-07-02T07:20:39;19.70;89.50
3186;DHT22;1604;53.700;10.252;2023-07-02T07:23:41;19.70;89.60
3186;DHT22;1604;53.700;10.252;2023-07-02T07:26:44;19.70;87.60
3186;DHT22;1604;53.700;10.252;2023-07-02T07:29:46;19.50;87.50
3186;DHT22;1604;53.700;10.252;2023-07-02T07:32:49;19.30;88.60
3186;DHT22;1604;53.700;10.252;2023-07-02T07:35:52;19.10;89.80
3186;DHT22;1604;53.700;10.252;2023-07-02T07:38:54;18.90;91.20
3186;DHT22;1604;53.700;10.252;2023-07-02T07:41:57;18.70;91.20
3186;DHT22;1604;53.700;10.252;2023-07-02T07:44:59;18.50;92.30
3186;DHT22;1604;53.700;10.252;2023-07-02T07:48:01;18.40;92.30
3186;DHT22;1604;53.700;10.252;2023-07-02T07:51:03;18.20;93.60
3186;DHT22;1604;53.700;10.252;2023-07-02T07:54:05;18.20;93.90
3186;DHT22;1604;53.700;10.252;2023-07-02T07:57:08;18.10;94.70
3186;DHT22;1604;53.700;10.252;2023-07-02T08:00:11;18.20;93.70
3186;DHT22;1604;53.700;10.252;2023-07-02T08:03:13;18.10;94.40
3186;DHT22;1604;53.700;10.252;2023-07-02T08:06:15;18.20;93.60
3186;DHT22;1604;53.700;10.252;2023-07-02T08:09:17;18.40;93.70
3186;DHT22;1604;53.700;10.252;2023-07-02T08:12:20;18.50;92.80
3186;DHT22;1604;53.700;10.252;2023-07-02T08:15:22;18.90;91.40
3186;DHT22;1604;53.700;10.252;2023-07-02T08:18:24;19.20;91.90
3186;DHT22;1604;53.700;10.252;2023-07-02T08:21:26;19.70;87.30
3186;DHT22;1604;53.700;10.252;2023-07-02T08:24:28;20.00;83.30
3186;DHT22;1604;53.700;10.252;2023-07-02T08:27:32;20.30;82.30
3186;DHT22;1604;53.700;10.252;2023-07-02T08:30:35;20.30;78.50
3186;DHT22;1604;53.700;10.252;2023-07-02T08:33:37;20.20;78.40
3186;DHT22;1604;53.700;10.252;2023-07-02T08:36:39;20.20;76.90
3186;DHT22;1604;53.700;10.252;2023-07-02T08:39:41;20.00;78.20
3186;DHT22;1604;53.700;10.252;2023-07-02T08:42:45;19.80;81.90
3186;DHT22;1604;53.700;10.252;2023-07-02T08:45:47;19.60;84.80
3186;DHT22;1604;53.700;10.252;2023-07-02T08:48:49;19.30;83.30
3186;DHT22;1604;53.700;10.252;2023-07-02T08:51:52;19.10;84.70
3186;DHT22;1604;53.700;10.252;2023-07-02T08:54:53;18.80;85.50
3186;DHT22;1604;53.700;10.252;2023-07-02T08:57:57;18.70;86.20
3186;DHT22;1604;53.700;10.252;2023-07-02T09:01:04;18.50;86.30
3186;DHT22;1604;53.700;10.252;2023-07-02T09:04:06;18.40;88.30
3186;DHT22;1604;53.700;10.252;2023-07-02T09:07:16;18.70;86.90
3186;DHT22;1604;53.700;10.252;2023-07-02T09:10:28;19.00;88.60
3186;DHT22;1604;53.700;10.252;2023-07-02T09:13:42;19.50;85.50
3186;DHT22;1604;53.700;10.252;2023-07-02T09:16:44;19.90;82.90
3186;DHT22;1604;53.700;10.252;2023-07-02T09:19:50;20.30;82.40
3186;DHT22;1604;53.700;10.252;2023-07-02T09:22:53;20.70;82.20
3186;DHT22;1604;53.700;10.252;2023-07-02T09:25:56;21.10;81.50
3186;DHT22;1604;53.700;10.252;2023-07-02T09:29:02;21.30;77.70
3186;DHT22;1604;53.700;10.252;2023-07-02T09:32:05;21.30;74.60
3186;DHT22;1604;53.700;10.252;2023-07-02T09:35:08;21.00;73.40
3186;DHT22;1604;53.700;10.252;2023-07-02T09:38:11;20.40;84.50
3186;DHT22;1604;53.700;10.252;2023-07-02T09:41:14;19.30;90.20
3186;DHT22;1604;53.700;10.252;2023-07-02T09:44:17;18.30;93.20
3186;DHT22;1604;53.700;10.252;2023-07-02T09:47:21;17.80;95.90
3186;DHT22;1604;53.700;10.252;2023-07-02T09:50:25;17.30;97.70
3186;DHT22;1604;53.700;10.252;2023-07-02T09:53:29;17.10;98.80
3186;DHT22;1604;53.700;10.252;2023-07-02T09:56:31;17.00;98.30
3186;DHT22;1604;53.700;10.252;2023-07-02T09:59:35;16.90;99.40
3186;DHT22;1604;53.700;10.252;2023-07-02T10:02:37;16.90;99.20
3186;DHT22;1604;53.700;10.252;2023-07-02T10:05:39;17.10;98.30
3186;DHT22;1604;53.700;10.252;2023-07-02T10:08:52;17.40;97.80
3186;DHT22;1604;53.700;10.252;2023-07-02T10:11:54;17.80;98.20
3186;DHT22;1604;53.700;10.252;2023-07-02T10:14:58;18.30;98.20
3186;DHT22;1604;53.700;10.252;2023-07-02T10:18:03;19.00;92.00
3186;DHT22;1604;53.700;10.252;2023-07-02T10:21:15;19.40;90.00
3186;DHT22;1604;53.700;10.252;2023-07-02T10:24:18;19.90;88.30
3186;DHT22;1604;53.700;10.252;2023-07-02T10:27:20;20.00;85.40
3186;DHT22;1604;53.700;10.252;2023-07-02T10:30:37;20.20;86.30
3186;DHT22;1604;53.700;10.252;2023-07-02T10:33:43;20.60;86.10
3186;DHT22;1604;53.700;10.252;2023-07-02T10:36:45;21.10;77.20
3186;DHT22;1604;53.700;10.252;2023-07-02T10:39:47;21.40;72.60
3186;DHT22;1604;53.700;10.252;2023-07-02T10:42:50;21.70;70.00
3186;DHT22;1604;53.700;10.252;2023-07-02T10:45:54;21.90;67.90
3186;DHT22;1604;53.700;10.252;2023-07-02T10:48:56;22.10;66.10
3186;DHT22;1604;53.700;10.252;2023-07-02T10:52:01;22.20;65.30
3186;DHT22;1604;53.700;10.252;2023-07-02T10:55:08;22.30;64.80
3186;DHT22;1604;53.700;10.252;2023-07-02T10:58:12;22.50;66.90
3186;DHT22;1604;53.700;10.252;2023-07-02T11:01:22;22.60;62.80
3186;DHT22;1604;53.700;10.252;2023-07-02T11:04:24;22.70;63.60
3186;DHT22;1604;53.700;10.252;2023-07-02T11:07:26;22.80;64.30
3186;DHT22;1604;53.700;10.252;2023-07-02T11:10:28;22.80;64.10
3186;DHT22;1604;53.700;10.252;2023-07-02T11:13:30;22.70;65.20
3186;DHT22;1604;53.700;10.252;2023-07-02T11:16:33;22.70;64.40
3186;DHT22;1604;53.700;10.252;2023-07-02T11:19:36;22.50;63.10
3186;DHT22;1604;53.700;10.252;2023-07-02T11:22:38;22.60;63.10
3186;DHT22;1604;53.700;10.252;2023-07-02T11:25:41;22.70;62.80
3186;DHT22;1604;53.700;10.252;2023-07-02T11:28:50;22.90;61.70
3186;DHT22;1604;53.700;10.252;2023-07-02T11:31:53;22.90;61.70
3186;DHT22;1604;53.700;10.252;2023-07-02T11:34:56;22.90;61.20
3186;DHT22;1604;53.700;10.252;2023-07-02T11:37:58;22.60;62.20
3186;DHT22;1604;53.700;10.252;2023-07-02T11:41:00;22.20;68.30
3186;DHT22;1604;53.700;10.252;2023-07-02T11:44:04;21.40;75.50
3186;DHT22;1604;53.700;10.252;2023-07-02T11:47:09;20.60;78.90
3186;DHT22;1604;53.700;10.252;2023-07-02T11:50:11;19.80;83.60
3186;DHT22;1604;53.700;10.252;2023-07-02T11:53:13;19.40;86.60
3186;DHT22;1604;53.700;10.252;2023-07-02T11:56:15;19.30;90.70
3186;DHT22;1604;53.700;10.252;2023-07-02T11:59:17;19.50;90.70
3186;DHT22;1604;53.700;10.252;2023-07-02T12:02:20;19.70;87.30
3186;DHT22;1604;53.700;10.252;2023-07-02T12:05:22;19.90;85.70
3186;DHT22;1604;53.700;10.252;2023-07-02T12:08:26;20.00;84.10
3186;DHT22;1604;53.700;10.252;2023-07-02T12:11:28;20.20;82.60
3186;DHT22;1604;53.700;10.252;2023-07-02T12:14:30;20.50;83.10
3186;DHT22;1604;53.700;10.252;2023-07-02T12:17:34;20.80;81.00
3186;DHT22;1604;53.700;10.252;2023-07-02T12:20:36;20.90;78.80
3186;DHT22;1604;53.700;10.252;2023-07-02T12:23:38;20.70;76.70
3186;DHT22;1604;53.700;10.252;2023-07-02T12:26:40;20.30;80.40
3186;DHT22;1604;53.700;10.252;2023-07-02T12:29:42;20.00;82.90
3186;DHT22;1604;53.700;10.252;2023-07-02T12:32:46;20.00;84.50
3186;DHT22;1604;53.700;10.252;2023-07-02T12:35:47;20.10;81.10
3186;DHT22;1604;53.700;10.252;2023-07-02T12:38:49;20.50;80.30
3186;DHT22;1604;53.700;10.252;2023-07-02T12:41:51;20.70;79.30
3186;DHT22;1604;53.700;10.252;2023-07-02T12:44:53;21.00;76.00
3186;DHT22;1604;53.700;10.252;2023-07-02T12:47:56;21.20;77.50
3186;DHT22;1604;53.700;10.252;2023-07-02T12:50:59;21.50;70.40
3186;DHT22;1604;53.700;10.252;2023-07-02T12:54:01;21.50;70.50
3186;DHT22;1604;53.700;10.252;2023-07-02T12:57:04;21.80;71.30
3186;DHT22;1604;53.700;10.252;2023-07-02T13:00:07;21.90;66.90
3186;DHT22;1604;53.700;10.252;2023-07-02T13:03:12;21.90;68.10
3186;DHT22;1604;53.700;10.252;2023-07-02T13:06:14;22.00;67.80
3186;DHT22;1604;53.700;10.252;2023-07-02T13:09:16;22.10;64.60
3186;DHT22;1604;53.700;10.252;2023-07-02T13:12:18;22.10;65.00
3186;DHT22;1604;53.700;10.252;2023-07-02T13:15:20;22.20;64.30
3186;DHT22;1604;53.700;10.252;2023-07-02T13:18:24;22.10;64.00
3186;DHT22;1604;53.700;10.252;2023-07-02T13:21:25;22.00;63.50
3186;DHT22;1604;53.700;10.252;2023-07-02T13:24:32;22.10;67.30
3186;DHT22;1604;53.700;10.252;2023-07-02T13:27:35;22.10;66.10
3186;DHT22;1604;53.700;10.252;2023-07-02T13:30:38;21.90;63.10
3186;DHT22;1604;53.700;10.252;2023-07-02T13:33:41;21.70;61.40
3186;DHT22;1604;53.700;10.252;2023-07-02T13:36:43;21.50;61.20
3186;DHT22;1604;53.700;10.252;2023-07-02T13:39:45;21.60;62.00
3186;DHT22;1604;53.700;10.252;2023-07-02T13:42:47;21.70;60.50
3186;DHT22;1604;53.700;10.252;2023-07-02T13:45:52;21.60;64.50
3186;DHT22;1604;53.700;10.252;2023-07-02T13:48:55;21.60;64.00
3186;DHT22;1604;53.700;10.252;2023-07-02T13:51:57;21.80;62.50
3186;DHT22;1604;53.700;10.252;2023-07-02T13:54:59;21.90;62.40
3186;DHT22;1604;53.700;10.252;2023-07-02T13:58:01;22.00;64.60
3186;DHT22;1604;53.700;10.252;2023-07-02T14:01:05;22.30;61.40
3186;DHT22;1604;53.700;10.252;2023-07-02T14:04:06;22.50;60.20
3186;DHT22;1604;53.700;10.252;2023-07-02T14:07:08;22.40;59.20
3186;DHT22;1604;53.700;10.252;2023-07-02T14:10:11;22.30;59.70
3186;DHT22;1604;53.700;10.252;2023-07-02T14:13:13;22.30;58.90
3186;DHT22;1604;53.700;10.252;2023-07-02T14:16:16;22.20;58.70
3186;DHT22;1604;53.700;10.252;2023-07-02T14:19:18;22.30;60.70
3186;DHT22;1604;53.700;10.252;2023-07-02T14:22:20;22.30;58.50
3186;DHT22;1604;53.700;10.252;2023-07-02T14:25:22;22.10;60.30
3186;DHT22;1604;53.700;10.252;2023-07-02T14:28:24;22.00;60.50
3186;DHT22;1604;53.700;10.252;2023-07-02T14:31:31;22.10;61.30
3186;DHT22;1604;53.700;10.252;2023-07-02T14:34:33;22.10;62.80
3186;DHT22;1604;53.700;10.252;2023-07-02T14:37:35;22.30;61.80
3186;DHT22;1604;53.700;10.252;2023-07-02T14:40:37;22.20;60.90
3186;DHT22;1604;53.700;10.252;2023-07-02T14:43:39;22.00;60.90
3186;DHT22;1604;53.700;10.252;2023-07-02T14:46:42;21.80;61.50
3186;DHT22;1604;53.700;10.252;2023-07-02T14:49:44;21.50;60.20
3186;DHT22;1604;53.700;10.252;2023-07-02T14:52:46;21.30;61.90
3186;DHT22;1604;53.700;10.252;2023-07-02T14:55:48;21.40;61.90
3186;DHT22;1604;53.700;10.252;2023-07-02T14:58:50;21.50;61.40
3186;DHT22;1604;53.700;10.252;2023-07-02T15:01:53;21.60;60.70
3186;DHT22;1604;53.700;10.252;2023-07-02T15:04:55;21.50;59.20
3186;DHT22;1604;53.700;10.252;2023-07-02T15:07:57;21.70;60.30
3186;DHT22;1604;53.700;10.252;2023-07-02T15:11:00;21.60;59.50
3186;DHT22;1604;53.700;10.252;2023-07-02T15:14:02;21.40;59.10
3186;DHT22;1604;53.700;10.252;2023-07-02T15:17:05;21.20;61.40
3186;DHT22;1604;53.700;10.252;2023-07-02T15:20:08;21.20;61.70
3186;DHT22;1604;53.700;10.252;2023-07-02T15:23:10;21.00;62.40
3186;DHT22;1604;53.700;10.252;2023-07-02T15:26:12;21.00;62.50
3186;DHT22;1604;53.700;10.252;2023-07-02T15:29:15;20.90;62.50
3186;DHT22;1604;53.700;10.252;2023-07-02T15:32:18;20.80;64.00
3186;DHT22;1604;53.700;10.252;2023-07-02T15:35:21;20.80;64.40
3186;DHT22;1604;53.700;10.252;2023-07-02T15:38:23;20.60;65.30
3186;DHT22;1604;53.700;10.252;2023-07-02T15:41:25;20.40;65.50
3186;DHT22;1604;53.700;10.252;2023-07-02T15:44:26;20.30;66.10
3186;DHT22;1604;53.700;10.252;2023-07-02T15:47:30;20.30;66.40
3186;DHT22;1604;53.700;10.252;2023-07-02T15:50:32;20.30;67.40
3186;DHT22;1604;53.700;10.252;2023-07-02T15:53:38;20.40;67.90
3186;DHT22;1604;53.700;10.252;2023-07-02T15:56:40;20.50;67.70
3186;DHT22;1604;53.700;10.252;2023-07-02T15:59:42;20.40;66.20
3186;DHT22;1604;53.700;10.252;2023-07-02T16:02:48;20.40;65.60
3186;DHT22;1604;53.700;10.252;2023-07-02T16:05:55;20.30;67.00
3186;DHT22;1604;53.700;10.252;2023-07-02T16:08:57;20.30;63.80
3186;DHT22;1604;53.700;10.252;2023-07-02T16:11:59;20.20;64.40
3186;DHT22;1604;53.700;10.252;2023-07-02T16:15:01;20.30;64.90
3186;DHT22;1604;53.700;10.252;2023-07-02T16:18:08;20.30;61.20
3186;DHT22;1604;53.700;10.252;2023-07-02T16:21:10;20.20;59.70
3186;DHT22;1604;53.700;10.252;2023-07-02T16:24:17;20.20;59.20
3186;DHT22;1604;53.700;10.252;2023-07-02T16:27:20;20.10;60.60
3186;DHT22;1604;53.700;10.252;2023-07-02T16:30:22;19.90;59.90
3186;DHT22;1604;53.700;10.252;2023-07-02T16:33:27;19.80;61.60
3186;DHT22;1604;53.700;10.252;2023-07-02T16:36:33;19.70;62.00
3186;DHT22;1604;53.700;10.252;2023-07-02T16:39:35;19.70;62.40
3186;DHT22;1604;53.700;10.252;2023-07-02T16:42:40;19.60;62.60
3186;DHT22;1604;53.700;10.252;2023-07-02T16:45:42;19.50;63.10
3186;DHT22;1604;53.700;10.252;2023-07-02T16:48:45;19.50;63.60
3186;DHT22;1604;53.700;10.252;2023-07-02T16:51:48;19.40;64.10
3186;DHT22;1604;53.700;10.252;2023-07-02T16:54:50;19.40;65.20
3186;DHT22;1604;53.700;10.252;2023-07-02T16:57:55;19.30;64.70
3186;DHT22;1604;53.700;10.252;2023-07-02T17:01:00;19.30;65.50
3186;DHT22;1604;53.700;10.252;2023-07-02T17:04:04;19.30;66.90
3186;DHT22;1604;53.700;10.252;2023-07-02T17:07:06;19.30;66.20
3186;DHT22;1604;53.700;10.252;2023-07-02T17:10:09;19.30;65.60
3186;DHT22;1604;53.700;10.252;2023-07-02T17:13:11;19.20;66.60
3186;DHT22;1604;53.700;10.252;2023-07-02T17:16:13;19.10;66.40
3186;DHT22;1604;53.700;10.252;2023-07-02T17:19:17;19.00;66.90
3186;DHT22;1604;53.700;10.252;2023-07-02T17:22:23;19.00;67.20
3186;DHT22;1604;53.700;10.252;2023-07-02T17:25:25;18.90;67.70
3186;DHT22;1604;53.700;10.252;2023-07-02T17:28:27;18.80;67.90
3186;DHT22;1604;53.700;10.252;2023-07-02T17:31:30;18.80;67.60
3186;DHT22;1604;53.700;10.252;2023-07-02T17:34:34;18.70;68.30
3186;DHT22;1604;53.700;10.252;2023-07-02T17:37:36;18.70;68.70
3186;DHT22;1604;53.700;10.252;2023-07-02T17:40:39;18.70;69.30
3186;DHT22;1604;53.700;10.252;2023-07-02T17:43:40;18.70;70.00
3186;DHT22;1604;53.700;10.252;2023-07-02T17:46:43;18.60;70.50
3186;DHT22;1604;53.700;10.252;2023-07-02T17:49:49;18.60;70.50
3186;DHT22;1604;53.700;10.252;2023-07-02T17:52:51;18.50;71.40
3186;DHT22;1604;53.700;10.252;2023-07-02T17:55:53;18.50;71.60
3186;DHT22;1604;53.700;10.252;2023-07-02T17:58:55;18.40;71.10
3186;DHT22;1604;53.700;10.252;2023-07-02T18:01:57;18.40;71.30
3186;DHT22;1604;53.700;10.252;2023-07-02T18:05:00;18.40;71.30
3186;DHT22;1604;53.700;10.252;2023-07-02T18:08:02;18.30;71.20
3186;DHT22;1604;53.700;10.252;2023-07-02T18:11:04;18.30;72.00
3186;DHT22;1604;53.700;10.252;2023-07-02T18:14:07;18.20;71.70
3186;DHT22;1604;53.700;10.252;2023-07-02T18:17:09;18.10;71.70
3186;DHT22;1604;53.700;10.252;2023-07-02T18:20:13;18.10;71.80
3186;DHT22;1604;53.700;10.252;2023-07-02T18:23:16;18.00;72.10
3186;DHT22;1604;53.700;10.252;2023-07-02T18:26:18;17.90;73.40
3186;DHT22;1604;53.700;10.252;2023-07-02T18:29:20;17.90;73.40
3186;DHT22;1604;53.700;10.252;2023-07-02T18:32:22;17.90;73.10
3186;DHT22;1604;53.700;10.252;2023-07-02T18:35:32;17.80;73.50
3186;DHT22;1604;53.700;10.252;2023-07-02T18:38:34;17.80;73.00
3186;DHT22;1604;53.700;10.252;2023-07-02T18:41:39;17.70;73.90
3186;DHT22;1604;53.700;10.252;2023-07-02T18:44:41;17.70;73.70
3186;DHT22;1604;53.700;10.252;2023-07-02T18:47:43;17.60;74.30
3186;DHT22;1604;53.700;10.252;2023-07-02T18:50:46;17.60;74.90
3186;DHT22;1604;53.700;10.252;2023-07-02T18:53:48;17.60;74.70
3186;DHT22;1604;53.700;10.252;2023-07-02T18:56:50;17.50;75.20
3186;DHT22;1604;53.700;10.252;2023-07-02T18:59:53;17.50;74.70
3186;DHT22;1604;53.700;10.252;2023-07-02T19:02:55;17.40;75.50
3186;DHT22;1604;53.700;10.252;2023-07-02T19:06:05;17.30;76.40
3186;DHT22;1604;53.700;10.252;2023-07-02T19:09:07;17.30;76.70
3186;DHT22;1604;53.700;10.252;2023-07-02T19:12:09;17.20;76.80
3186;DHT22;1604;53.700;10.252;2023-07-02T19:15:11;17.20;77.20
3186;DHT22;1604;53.700;10.252;2023-07-02T19:18:13;17.20;77.10
3186;DHT22;1604;53.700;10.252;2023-07-02T19:21:16;17.10;78.10
3186;DHT22;1604;53.700;10.252;2023-07-02T19:24:20;17.00;78.00
3186;DHT22;1604;53.700;10.252;2023-07-02T19:27:22;17.00;78.50
3186;DHT22;1604;53.700;10.252;2023-07-02T19:30:24;16.80;79.40
3186;DHT22;1604;53.700;10.252;2023-07-02T19:33:29;16.80;79.90